createdAt,value
2017-07-29T00:01:07.293Z,6.67
2017-07-29T00:03:36.270Z,7.03
2017-07-29T00:06:05.133Z,5.80
2017-07-29T00:08:34.008Z,7.47
2017-07-29T00:11:02.894Z,5.90
2017-07-29T00:13:31.756Z,5.80
2017-07-29T00:16:00.741Z,10.90
2017-07-29T00:18:29.708Z,6.47
2017-07-29T00:20:58.700Z,6.03
2017-07-29T00:23:27.694Z,6.50
2017-07-29T00:25:56.647Z,6.37
2017-07-29T00:28:25.680Z,6.30
2017-07-29T00:30:54.674Z,6.00
2017-07-29T00:33:23.668Z,5.90
2017-07-29T00:35:52.536Z,6.40
2017-07-29T00:38:21.464Z,5.70
2017-07-29T00:40:50.457Z,6.00
2017-07-29T00:43:19.346Z,5.83
2017-07-29T00:45:48.208Z,6.43
2017-07-29T00:48:17.125Z,7.00
2017-07-29T00:50:46.397Z,6.00
2017-07-29T00:53:15.273Z,6.03
2017-07-29T00:55:44.209Z,6.47
2017-07-29T00:58:13.083Z,7.47
2017-07-29T01:00:41.988Z,7.00
2017-07-29T01:03:10.885Z,6.90
2017-07-29T01:05:39.743Z,6.80
2017-07-29T01:08:08.601Z,7.30
2017-07-29T01:10:37.565Z,7.00
2017-07-29T01:13:06.433Z,8.53
2017-07-29T01:15:35.341Z,7.87
2017-07-29T01:18:04.220Z,8.10
2017-07-29T01:20:33.097Z,8.10
2017-07-29T01:23:01.968Z,7.70
2017-07-29T01:25:30.844Z,8.00
2017-07-29T01:27:59.706Z,8.73
2017-07-29T01:33:03.977Z,8.73
2017-07-29T01:35:32.908Z,8.87
2017-07-29T01:38:02.040Z,9.10
2017-07-29T01:40:30.929Z,9.87
2017-07-29T01:42:59.897Z,8.27
2017-07-29T01:45:28.875Z,9.17
2017-07-29T01:47:57.867Z,9.30
2017-07-29T01:50:26.794Z,8.90
2017-07-29T01:52:55.751Z,9.03
2017-07-29T01:55:24.745Z,8.53
2017-07-29T01:57:53.737Z,9.97
2017-07-29T02:00:22.645Z,9.97
2017-07-29T02:02:51.537Z,9.97
2017-07-29T02:05:20.425Z,9.03
2017-07-29T02:07:49.321Z,10.83
2017-07-29T02:10:18.209Z,9.20
2017-07-29T02:12:47.097Z,9.37
2017-07-29T02:15:15.966Z,9.80
2017-07-29T02:17:44.879Z,10.20
2017-07-29T02:20:13.858Z,10.30
2017-07-29T02:22:42.733Z,11.13
2017-07-29T02:25:11.620Z,10.93
2017-07-29T02:27:40.544Z,10.70
2017-07-29T02:30:09.441Z,10.97
2017-07-29T02:32:38.800Z,11.20
2017-07-29T02:35:07.669Z,9.93
2017-07-29T02:37:36.546Z,10.30
2017-07-29T02:40:05.445Z,10.60
2017-07-29T02:42:34.494Z,10.50
2017-07-29T02:45:03.374Z,10.30
2017-07-29T02:47:32.259Z,11.27
2017-07-29T02:50:01.181Z,10.47
2017-07-29T02:52:30.058Z,10.03
2017-07-29T02:54:58.954Z,10.63
2017-07-29T02:57:27.939Z,11.13
2017-07-29T02:59:56.837Z,10.90
2017-07-29T03:02:26.028Z,11.47
2017-07-29T03:04:55.021Z,11.63
2017-07-29T03:07:23.889Z,12.30
2017-07-29T03:09:52.908Z,11.50
2017-07-29T03:12:21.899Z,11.87
2017-07-29T03:14:50.890Z,11.23
2017-07-29T03:17:19.797Z,10.87
2017-07-29T03:19:48.660Z,9.83
2017-07-29T03:22:17.529Z,11.33
2017-07-29T03:24:46.480Z,11.40
2017-07-29T03:27:15.449Z,12.23
2017-07-29T03:29:44.440Z,12.87
2017-07-29T03:32:13.349Z,12.43
2017-07-29T03:34:42.236Z,13.13
2017-07-29T03:37:11.110Z,13.90
2017-07-29T03:39:39.996Z,14.27
2017-07-29T03:42:08.864Z,13.37
2017-07-29T03:44:37.735Z,12.70
2017-07-29T03:47:06.698Z,13.60
2017-07-29T03:49:35.632Z,12.30
2017-07-29T03:52:04.579Z,13.60
2017-07-29T03:54:33.470Z,13.07
2017-07-29T03:57:02.446Z,12.53
2017-07-29T03:59:31.363Z,12.60
2017-07-29T04:02:00.258Z,13.57
2017-07-29T04:04:29.124Z,13.53
2017-07-29T04:06:58.112Z,13.57
2017-07-29T04:09:27.105Z,14.87
2017-07-29T04:11:56.017Z,15.20
2017-07-29T04:14:24.989Z,14.90
2017-07-29T04:16:53.981Z,14.97
2017-07-29T04:19:22.857Z,14.43
2017-07-29T04:21:51.777Z,14.93
2017-07-29T04:24:20.668Z,15.07
2017-07-29T04:26:49.649Z,13.40
2017-07-29T04:29:18.561Z,14.17
2017-07-29T04:31:47.549Z,12.90
2017-07-29T04:34:16.528Z,11.73
2017-07-29T04:36:45.429Z,12.63
2017-07-29T04:39:14.318Z,11.80
2017-07-29T04:41:43.212Z,11.67
2017-07-29T04:44:12.192Z,11.50
2017-07-29T04:46:41.184Z,11.87
2017-07-29T04:49:10.178Z,10.27
2017-07-29T04:51:39.275Z,11.03
2017-07-29T04:54:08.165Z,11.17
2017-07-29T04:56:37.072Z,11.20
2017-07-29T04:59:06.051Z,11.20
2017-07-29T05:01:34.950Z,11.57
2017-07-29T05:04:03.830Z,11.10
2017-07-29T05:06:32.733Z,11.30
2017-07-29T05:09:01.631Z,11.60
2017-07-29T05:11:30.611Z,11.10
2017-07-29T05:13:59.473Z,12.30
2017-07-29T05:16:28.405Z,11.53
2017-07-29T05:18:57.284Z,11.77
2017-07-29T05:21:26.153Z,11.80
2017-07-29T05:23:55.071Z,12.20
2017-07-29T05:26:24.055Z,10.80
2017-07-29T05:28:52.925Z,10.97
2017-07-29T05:31:21.821Z,11.00
2017-07-29T05:33:50.689Z,9.60
2017-07-29T05:36:19.718Z,9.80
2017-07-29T05:38:48.610Z,9.90
2017-07-29T05:41:17.610Z,9.40
2017-07-29T05:43:46.496Z,10.23
2017-07-29T05:46:15.596Z,8.90
2017-07-29T05:48:44.493Z,9.60
2017-07-29T05:51:13.392Z,9.73
2017-07-29T05:53:42.393Z,10.03
2017-07-29T05:56:11.387Z,9.37
2017-07-29T05:58:40.255Z,9.20
2017-07-29T06:01:09.242Z,8.80
2017-07-29T06:03:38.235Z,9.17
2017-07-29T06:06:07.103Z,8.60
2017-07-29T06:08:36.033Z,7.73
2017-07-29T06:11:04.901Z,8.10
2017-07-29T06:13:33.775Z,8.90
2017-07-29T06:16:02.665Z,7.50
2017-07-29T06:18:31.533Z,7.87
2017-07-29T06:21:00.407Z,7.93
2017-07-29T06:23:29.285Z,8.17
2017-07-29T06:25:58.161Z,7.90
2017-07-29T06:28:27.041Z,7.40
2017-07-29T06:30:56.034Z,7.30
2017-07-29T06:33:24.899Z,6.27
2017-07-29T06:35:54.840Z,7.10
2017-07-29T06:38:23.732Z,6.87
2017-07-29T06:40:52.632Z,6.87
2017-07-29T06:43:21.616Z,6.60
2017-07-29T06:45:50.611Z,7.33
2017-07-29T06:48:19.476Z,7.40
2017-07-29T06:50:48.492Z,6.60
2017-07-29T06:53:17.409Z,6.73
2017-07-29T06:55:46.275Z,6.70
2017-07-29T07:00:50.416Z,6.87
2017-07-29T07:03:19.284Z,6.67
2017-07-29T07:05:48.198Z,6.83
2017-07-29T07:08:17.086Z,6.80
2017-07-29T07:10:45.969Z,6.10
2017-07-29T07:13:14.961Z,6.70
2017-07-29T07:15:43.870Z,5.93
2017-07-29T07:18:12.753Z,7.93
2017-07-29T07:20:41.667Z,6.73
2017-07-29T07:23:10.557Z,6.23
2017-07-29T07:25:39.421Z,7.07
2017-07-29T07:28:08.285Z,6.57
2017-07-29T07:30:37.171Z,6.30
2017-07-29T07:33:06.093Z,6.87
2017-07-29T07:35:34.957Z,6.40
2017-07-29T07:38:03.852Z,5.37
2017-07-29T07:40:32.834Z,6.57
2017-07-29T07:43:01.762Z,7.97
2017-07-29T07:45:30.648Z,6.33
2017-07-29T07:47:59.508Z,5.80
2017-07-29T07:50:28.372Z,6.03
2017-07-29T07:52:57.259Z,5.93
2017-07-29T07:55:26.126Z,5.70
2017-07-29T07:57:55.016Z,6.37
2017-07-29T08:00:23.892Z,6.10
2017-07-29T08:02:52.763Z,5.30
2017-07-29T08:05:21.633Z,7.20
2017-07-29T08:07:50.561Z,6.10
2017-07-29T08:10:19.459Z,5.17
2017-07-29T08:12:48.329Z,5.73
2017-07-29T08:15:17.217Z,5.10
2017-07-29T08:17:46.095Z,4.97
2017-07-29T08:20:14.965Z,6.80
2017-07-29T08:22:43.845Z,5.60
2017-07-29T08:25:12.713Z,5.53
2017-07-29T08:27:41.577Z,5.60
2017-07-29T08:30:10.457Z,4.70
2017-07-29T08:32:39.323Z,4.70
2017-07-29T08:35:08.181Z,4.77
2017-07-29T08:37:37.113Z,3.80
2017-07-29T08:40:05.989Z,3.17
2017-07-29T08:42:34.849Z,3.63
2017-07-29T08:45:03.736Z,3.63
2017-07-29T08:47:32.595Z,3.20
2017-07-29T08:50:01.460Z,2.97
2017-07-29T08:52:30.352Z,3.50
2017-07-29T08:54:59.216Z,3.27
2017-07-29T08:57:28.080Z,3.43
2017-07-29T08:59:56.970Z,3.47
2017-07-29T09:02:26.124Z,5.27
2017-07-29T09:04:54.996Z,4.00
2017-07-29T09:07:23.878Z,3.17
2017-07-29T09:09:52.740Z,3.67
2017-07-29T09:12:21.614Z,3.50
2017-07-29T09:14:50.497Z,3.70
2017-07-29T09:17:19.365Z,3.67
2017-07-29T09:19:48.229Z,3.97
2017-07-29T09:22:17.113Z,3.50
2017-07-29T09:24:45.977Z,3.20
2017-07-29T09:27:14.845Z,3.63
2017-07-29T09:29:43.728Z,3.50
2017-07-29T09:32:12.607Z,3.23
2017-07-29T09:34:41.493Z,3.50
2017-07-29T09:37:10.373Z,3.47
2017-07-29T09:39:39.244Z,3.47
2017-07-29T09:42:08.111Z,3.53
2017-07-29T09:44:37.000Z,3.60
2017-07-29T09:47:05.880Z,3.50
2017-07-29T09:49:34.744Z,3.30
2017-07-29T09:52:03.650Z,4.00
2017-07-29T09:54:32.521Z,4.07
2017-07-29T09:57:01.386Z,3.90
2017-07-29T09:59:30.283Z,3.83
2017-07-29T10:01:59.185Z,3.60
2017-07-29T10:04:28.058Z,3.97
2017-07-29T10:06:56.944Z,4.50
2017-07-29T10:09:25.810Z,3.60
2017-07-29T10:11:54.672Z,3.90
2017-07-29T10:14:23.558Z,3.47
2017-07-29T10:16:52.430Z,3.63
2017-07-29T10:19:21.301Z,3.40
2017-07-29T10:21:50.193Z,3.77
2017-07-29T10:24:19.061Z,3.17
2017-07-29T10:26:47.925Z,3.37
2017-07-29T10:29:16.809Z,3.93
2017-07-29T10:31:45.673Z,3.10
2017-07-29T10:34:14.534Z,3.17
2017-07-29T10:36:43.409Z,3.50
2017-07-29T10:39:12.273Z,3.33
2017-07-29T10:41:41.137Z,3.27
2017-07-29T10:44:10.038Z,3.37
2017-07-29T10:46:38.917Z,3.07
2017-07-29T10:49:07.877Z,3.20
2017-07-29T10:51:36.806Z,2.93
2017-07-29T10:54:05.716Z,2.90
2017-07-29T10:56:38.898Z,2.90
2017-07-29T10:59:07.760Z,3.03
2017-07-29T11:01:36.621Z,3.10
2017-07-29T11:04:05.504Z,2.90
2017-07-29T11:06:34.373Z,2.67
2017-07-29T11:09:03.246Z,2.90
2017-07-29T11:11:32.128Z,3.10
2017-07-29T11:14:00.992Z,2.30
2017-07-29T11:16:29.862Z,3.10
2017-07-29T11:18:58.754Z,3.13
2017-07-29T11:21:27.616Z,3.03
2017-07-29T11:23:56.481Z,2.70
2017-07-29T11:26:25.360Z,3.03
2017-07-29T11:28:54.226Z,3.10
2017-07-29T11:31:23.105Z,2.60
2017-07-29T11:33:52.090Z,2.50
2017-07-29T11:36:20.953Z,2.90
2017-07-29T11:38:49.816Z,2.60
2017-07-29T11:41:18.705Z,2.90
2017-07-29T11:43:47.569Z,2.50
2017-07-29T11:46:16.430Z,2.90
2017-07-29T11:48:45.325Z,2.50
2017-07-29T11:51:14.193Z,2.43
2017-07-29T11:53:43.056Z,3.30
2017-07-29T11:56:12.020Z,3.20
2017-07-29T11:58:40.888Z,2.70
2017-07-29T12:01:09.800Z,2.33
2017-07-29T12:03:38.792Z,2.40
2017-07-29T12:06:07.684Z,2.60
2017-07-29T12:08:36.662Z,2.50
2017-07-29T12:11:05.554Z,2.63
2017-07-29T12:13:34.454Z,2.30
2017-07-29T12:16:03.316Z,2.27
2017-07-29T12:18:32.201Z,2.47
2017-07-29T12:21:01.075Z,2.67
2017-07-29T12:23:29.944Z,2.40
2017-07-29T12:25:58.926Z,2.27
2017-07-29T12:28:27.799Z,2.40
2017-07-29T12:30:56.659Z,2.33
2017-07-29T12:33:25.671Z,2.60
2017-07-29T12:35:54.549Z,2.47
2017-07-29T12:38:23.417Z,2.40
2017-07-29T12:40:52.357Z,2.40
2017-07-29T12:43:21.335Z,2.27
2017-07-29T12:45:50.197Z,2.60
2017-07-29T12:48:19.137Z,2.33
2017-07-29T12:50:48.027Z,2.60
2017-07-29T12:53:16.897Z,2.13
2017-07-29T12:55:45.891Z,2.47
2017-07-29T12:58:14.883Z,2.57
2017-07-29T13:00:43.876Z,2.70
2017-07-29T13:03:12.870Z,2.57
2017-07-29T13:05:41.863Z,2.33
2017-07-29T13:08:10.728Z,2.60
2017-07-29T13:10:39.746Z,3.20
2017-07-29T13:13:08.616Z,2.43
2017-07-29T13:15:37.536Z,2.60
2017-07-29T13:18:06.424Z,2.70
2017-07-29T13:20:35.280Z,2.60
2017-07-29T13:23:04.144Z,2.87
2017-07-29T13:25:33.036Z,2.73
2017-07-29T13:28:01.899Z,3.10
2017-07-29T13:30:30.790Z,2.63
2017-07-29T13:32:59.672Z,2.70
2017-07-29T13:35:28.566Z,2.50
2017-07-29T13:37:57.434Z,2.63
2017-07-29T13:40:26.350Z,2.70
2017-07-29T13:42:55.221Z,2.77
2017-07-29T13:45:24.137Z,2.97
2017-07-29T13:47:53.113Z,2.63
2017-07-29T13:50:22.113Z,2.83
2017-07-29T13:52:51.349Z,2.30
2017-07-29T13:55:20.643Z,3.33
2017-07-29T13:57:49.509Z,2.70
2017-07-29T14:00:18.625Z,2.60
2017-07-29T14:02:47.505Z,2.47
2017-07-29T14:05:16.397Z,2.43
2017-07-29T14:07:45.354Z,2.62
2017-07-29T14:10:14.243Z,2.62
2017-07-29T14:12:43.364Z,2.45
2017-07-29T14:15:12.239Z,2.80
2017-07-29T14:17:41.133Z,2.78
2017-07-29T14:20:09.996Z,2.60
2017-07-29T14:22:38.862Z,2.20
2017-07-29T14:25:07.752Z,2.83
2017-07-29T14:27:36.616Z,2.75
2017-07-29T14:30:05.478Z,2.45
2017-07-29T14:32:34.466Z,2.33
2017-07-29T14:35:03.328Z,2.62
2017-07-29T14:37:32.200Z,2.08
2017-07-29T14:40:01.088Z,2.00
2017-07-29T14:42:29.950Z,2.35
2017-07-29T14:44:58.917Z,2.60
2017-07-29T14:47:27.912Z,2.33
2017-07-29T14:49:56.781Z,2.12
2017-07-29T14:52:25.650Z,2.40
2017-07-29T14:54:54.609Z,2.40
2017-07-29T14:57:23.473Z,2.30
2017-07-29T14:59:52.341Z,2.35
2017-07-29T15:02:21.265Z,2.28
2017-07-29T15:04:50.137Z,2.25
2017-07-29T15:07:19.045Z,2.10
2017-07-29T15:09:47.927Z,2.42
2017-07-29T15:12:16.919Z,2.80
2017-07-29T15:14:45.911Z,2.28
2017-07-29T15:17:14.816Z,2.20
2017-07-29T15:19:43.684Z,2.37
2017-07-29T15:22:12.552Z,2.50
2017-07-29T15:24:41.432Z,2.20
2017-07-29T15:27:10.382Z,2.58
2017-07-29T15:29:39.584Z,2.25
2017-07-29T15:32:08.570Z,3.10
2017-07-29T15:34:37.547Z,2.65
2017-07-29T15:37:06.542Z,1.95
2017-07-29T15:39:35.426Z,1.70
2017-07-29T15:42:04.302Z,2.40
2017-07-29T15:44:33.236Z,2.10
2017-07-29T15:47:02.227Z,2.45
2017-07-29T15:49:31.098Z,1.90
2017-07-29T15:51:59.968Z,2.60
2017-07-29T15:54:28.989Z,1.87
2017-07-29T15:56:57.872Z,2.33
2017-07-29T15:59:26.762Z,2.70
2017-07-29T16:01:55.645Z,2.30
2017-07-29T16:04:24.561Z,2.40
2017-07-29T16:06:53.429Z,2.00
2017-07-29T16:09:22.313Z,2.63
2017-07-29T16:11:51.177Z,2.33
2017-07-29T16:14:20.133Z,2.13
2017-07-29T16:16:49.116Z,2.60
2017-07-29T16:19:18.107Z,2.80
2017-07-29T16:21:47.091Z,2.17
2017-07-29T16:24:16.084Z,2.67
2017-07-29T16:26:45.079Z,2.30
2017-07-29T16:29:12.746Z,1.90
2017-07-29T16:31:41.625Z,2.30
2017-07-29T16:34:10.537Z,2.03
2017-07-29T16:36:39.413Z,2.60
2017-07-29T16:39:08.326Z,2.60
2017-07-29T16:41:37.206Z,2.40
2017-07-29T16:44:06.188Z,2.10
2017-07-29T16:46:35.074Z,2.73
2017-07-29T16:49:04.072Z,2.50
2017-07-29T16:51:32.942Z,2.63
2017-07-29T16:54:01.940Z,3.00
2017-07-29T16:56:30.865Z,2.53
2017-07-29T16:59:00.026Z,4.30
2017-07-29T17:01:28.903Z,2.87
2017-07-29T17:03:57.796Z,2.70
2017-07-29T17:06:26.685Z,7.10
2017-07-29T17:08:55.709Z,10.97
2017-07-29T17:11:24.705Z,3.67
2017-07-29T17:13:53.605Z,4.40
2017-07-29T17:16:22.588Z,9.50
2017-07-29T17:18:51.459Z,3.57
2017-07-29T17:21:20.380Z,3.83
2017-07-29T17:23:49.277Z,3.60
2017-07-29T17:26:18.253Z,3.10
2017-07-29T17:28:47.244Z,3.57
2017-07-29T17:31:16.145Z,3.03
2017-07-29T17:33:45.018Z,14.27
2017-07-29T17:36:13.928Z,3.13
2017-07-29T17:38:42.920Z,11.93
2017-07-29T17:41:11.780Z,5.20
2017-07-29T17:43:41.151Z,3.50
2017-07-29T17:46:10.196Z,8.80
2017-07-29T17:48:39.101Z,25.10
2017-07-29T17:51:07.964Z,3.23
2017-07-29T17:53:36.878Z,2.80
2017-07-29T17:56:05.770Z,3.50
2017-07-29T17:58:34.750Z,3.20
2017-07-29T18:01:03.641Z,3.17
2017-07-29T18:03:32.513Z,2.83
2017-07-29T18:06:01.396Z,5.13
2017-07-29T18:08:30.340Z,7.00
2017-07-29T18:10:59.536Z,6.30
2017-07-29T18:13:28.413Z,3.33
2017-07-29T18:15:57.413Z,4.10
2017-07-29T18:18:26.296Z,3.70
2017-07-29T18:20:55.177Z,3.80
2017-07-29T18:23:24.188Z,3.30
2017-07-29T18:25:53.366Z,4.10
2017-07-29T18:28:22.362Z,4.50
2017-07-29T18:30:51.246Z,4.10
2017-07-29T18:33:20.108Z,5.37
2017-07-29T18:35:49.134Z,5.37
2017-07-29T18:38:18.038Z,11.50
2017-07-29T18:40:46.927Z,5.87
2017-07-29T18:43:15.806Z,5.17
2017-07-29T18:45:44.706Z,4.70
2017-07-29T18:48:13.618Z,5.23
2017-07-29T18:50:42.489Z,4.33
2017-07-29T18:53:11.377Z,6.40
2017-07-29T18:55:40.261Z,5.03
2017-07-29T18:58:09.129Z,4.63
2017-07-29T19:00:38.009Z,5.00
2017-07-29T19:03:06.881Z,4.97
2017-07-29T19:05:35.841Z,5.30
2017-07-29T19:08:04.732Z,17.23
2017-07-29T19:10:33.705Z,21.23
2017-07-29T19:13:02.617Z,6.20
2017-07-29T19:15:31.509Z,7.00
2017-07-29T19:18:00.409Z,5.10
2017-07-29T19:20:29.279Z,4.53
2017-07-29T19:22:58.167Z,5.10
2017-07-29T19:25:27.039Z,5.80
2017-07-29T19:27:55.910Z,4.67
2017-07-29T19:30:24.792Z,8.77
2017-07-29T19:32:53.661Z,6.43
2017-07-29T19:35:23.356Z,4.77
2017-07-29T19:37:52.240Z,4.67
2017-07-29T19:40:21.232Z,14.97
2017-07-29T19:42:50.115Z,17.83
2017-07-29T19:45:19.109Z,4.60
2017-07-29T19:47:47.976Z,6.93
2017-07-29T19:50:16.894Z,4.70
2017-07-29T19:52:45.972Z,5.10
2017-07-29T19:55:14.890Z,4.47
2017-07-29T19:57:43.856Z,4.73
2017-07-29T20:00:12.766Z,4.70
2017-07-29T20:02:41.649Z,4.83
2017-07-29T20:05:10.515Z,4.60
2017-07-29T20:07:39.423Z,5.30
2017-07-29T20:10:08.311Z,5.20
2017-07-29T20:12:37.182Z,4.80
2017-07-29T20:15:07.115Z,5.63
2017-07-29T20:17:36.007Z,5.40
2017-07-29T20:20:04.885Z,5.43
2017-07-29T20:22:34.011Z,5.10
2017-07-29T20:25:05.007Z,4.80
2017-07-29T20:27:33.937Z,7.87
2017-07-29T20:30:02.817Z,13.80
2017-07-29T20:32:31.684Z,6.20
2017-07-29T20:35:00.701Z,5.50
2017-07-29T20:37:29.696Z,7.80
2017-07-29T20:39:58.578Z,18.67
2017-07-29T20:42:27.559Z,10.03
2017-07-29T20:44:56.428Z,8.60
2017-07-29T20:47:25.288Z,7.43
2017-07-29T20:49:54.185Z,7.20
2017-07-29T20:54:58.688Z,8.20
2017-07-29T20:57:27.596Z,9.40
2017-07-29T20:59:56.475Z,13.40
2017-07-29T21:02:25.381Z,11.07
2017-07-29T21:04:54.259Z,7.77
2017-07-29T21:07:23.248Z,8.27
2017-07-29T21:09:52.241Z,8.20
2017-07-29T21:12:21.154Z,8.50
2017-07-29T21:14:50.033Z,9.70
2017-07-29T21:17:18.935Z,10.37
2017-07-29T21:19:47.937Z,9.60
2017-07-29T21:22:16.821Z,6.87
2017-07-29T21:24:45.713Z,7.53
2017-07-29T21:27:14.597Z,7.57
2017-07-29T21:29:43.465Z,7.60
2017-07-29T21:32:12.341Z,7.97
2017-07-29T21:34:41.200Z,8.00
2017-07-29T21:37:10.065Z,7.90
2017-07-29T21:39:38.957Z,7.27
2017-07-29T21:42:07.925Z,8.83
2017-07-29T21:44:36.804Z,9.20
2017-07-29T21:47:05.724Z,8.43
2017-07-29T21:49:34.613Z,7.47
2017-07-29T21:52:03.478Z,8.67
2017-07-29T21:54:32.364Z,7.17
2017-07-29T21:57:01.279Z,7.80
2017-07-29T21:59:30.161Z,7.10
2017-07-29T22:01:59.070Z,8.10
2017-07-29T22:04:27.952Z,8.20
2017-07-29T22:06:56.930Z,9.27
2017-07-29T22:09:25.833Z,9.70
2017-07-29T22:11:54.704Z,9.00
2017-07-29T22:14:23.621Z,7.83
2017-07-29T22:16:52.507Z,9.30
2017-07-29T22:19:21.406Z,9.43
2017-07-29T22:21:50.281Z,9.50
2017-07-29T22:24:19.169Z,9.10
2017-07-29T22:26:48.073Z,9.20
2017-07-29T22:29:16.940Z,9.20
2017-07-29T22:31:45.863Z,9.60
2017-07-29T22:34:14.840Z,8.20
2017-07-29T22:36:43.835Z,7.93
2017-07-29T22:39:12.826Z,8.60
2017-07-29T22:41:41.696Z,9.80
2017-07-29T22:44:10.628Z,9.70
2017-07-29T22:46:39.520Z,10.80
2017-07-29T22:49:08.407Z,10.00
2017-07-29T22:51:37.383Z,10.20
2017-07-29T22:54:06.288Z,9.53
2017-07-29T22:56:35.167Z,9.27
2017-07-29T22:59:04.067Z,8.63
2017-07-29T23:01:33.050Z,8.60
2017-07-29T23:04:01.924Z,8.70
2017-07-29T23:06:30.933Z,9.63
2017-07-29T23:08:59.928Z,9.83
2017-07-29T23:11:28.921Z,9.30
2017-07-29T23:13:57.795Z,9.70
2017-07-29T23:16:26.725Z,7.73
2017-07-29T23:18:55.614Z,8.83
2017-07-29T23:21:24.689Z,8.10
2017-07-29T23:23:53.601Z,8.60
2017-07-29T23:26:22.575Z,8.20
2017-07-29T23:28:51.433Z,8.70
2017-07-29T23:31:20.459Z,10.13
2017-07-29T23:33:49.320Z,9.17
2017-07-29T23:36:18.252Z,10.37
2017-07-29T23:38:47.145Z,9.13
2017-07-29T23:41:16.124Z,10.93
2017-07-29T23:43:45.003Z,12.43
2017-07-29T23:46:13.892Z,11.40
2017-07-29T23:48:42.812Z,12.23
2017-07-29T23:51:11.681Z,11.60
2017-07-29T23:53:40.580Z,12.30
2017-07-29T23:56:09.460Z,11.40
2017-07-29T23:58:38.337Z,11.60
